Terminal Aerodrome Forecast
Issued by NWS

Home | Current Version | Previous Version | Text Only | Print | Product List | Glossary On
Versions: 1 2 3 4 5 6 7 8 9 10 11 12 13 14 15 16 17 18 19 20 21 22
473
FTUS43 KSGF 052338
TAFJLN
TAF
KJLN 052338Z 0600/0624 14004KT P6SM SCT250
     FM060600 00000KT P6SM BKN060
     FM060900 VRB03KT 3SM BR BKN015
     FM061000 32005KT P6SM BKN020
     FM061300 34010KT P6SM BKN070
     FM061400 34011KT P6SM SCT090
     FM062300 34006KT P6SM BKN200=

USA.gov is the U.S. government's official web portal to all federal, state and local government web resources and services.